Time;durP1;ratioP1;P1;durP2;ratioP2;P2;SDS_P1;SDS_P2;PMS_P1;PMS_P2;Temp;Humidity;BMP_temperature;BMP_pressure;BME280_temperature;BME280_humidity;BME280_pressure;Samples;Min_cycle;Max_cycle;Signal;HPM_P1;HPM_P2
2022/10/26 00:02:23;;;;;;;16.05;8.00;;;10.80;99.90;;;;;;5069604;28;20051;-91
2022/10/26 00:04:48;;;;;;;16.55;8.30;;;9.90;99.90;;;;;;5070219;28;20423;-92
2022/10/26 00:07:14;;;;;;;13.90;7.38;;;10.70;99.90;;;;;;5085789;28;20040;-90
2022/10/26 00:09:39;;;;;;;17.52;8.02;;;10.70;99.90;;;;;;5069766;28;20044;-90
2022/10/26 00:12:05;;;;;;;16.25;7.07;;;10.70;99.90;;;;;;5085594;28;20090;-89
2022/10/26 00:14:31;;;;;;;17.48;8.80;;;10.60;99.90;;;;;;5069545;28;20089;-91
2022/10/26 00:16:57;;;;;;;14.00;6.80;;;10.60;99.90;;;;;;5069051;28;20056;-90
2022/10/26 00:19:23;;;;;;;13.80;7.35;;;10.60;99.90;;;;;;5069813;28;20040;-91
2022/10/26 00:21:48;;;;;;;20.33;8.27;;;10.50;99.90;;;;;;5086101;28;20075;-91
2022/10/26 00:24:14;;;;;;;15.98;7.43;;;11.50;99.90;;;;;;5052271;28;20490;-90
2022/10/26 00:26:40;;;;;;;12.88;7.38;;;10.40;99.90;;;;;;5086380;28;20044;-90
2022/10/26 00:29:06;;;;;;;14.10;7.18;;;10.50;99.90;;;;;;5051905;28;20471;-91
2022/10/26 00:31:32;;;;;;;19.25;8.30;;;10.50;99.90;;;;;;5069506;28;20044;-90
2022/10/26 00:33:58;;;;;;;14.85;7.35;;;10.50;99.90;;;;;;5068748;28;20107;-90
2022/10/26 00:36:25;;;;;;;17.65;8.70;;;11.20;99.90;;;;;;5053124;28;20489;-90
2022/10/26 00:38:53;;;;;;;18.60;8.35;;;10.50;99.90;;;;;;5068067;28;20111;-90
2022/10/26 00:41:25;;;;;;;14.23;8.82;;;10.50;99.90;;;;;;5068334;28;20047;-90
2022/10/26 00:43:52;;;;;;;15.48;6.57;;;10.50;99.90;;;;;;5052562;28;20047;-90
2022/10/26 00:46:25;;;;;;;15.43;9.18;;;10.50;99.90;;;;;;5085634;28;20506;-89
2022/10/26 00:49:13;;;;;;;16.95;9.25;;;10.50;99.90;;;;;;5069563;28;20403;-90
2022/10/26 00:51:47;;;;;;;13.68;8.25;;;11.30;99.90;;;;;;5068200;28;20079;-91
2022/10/26 00:54:19;;;;;;;17.35;8.52;;;11.10;99.90;;;;;;5073230;28;20085;-90
2022/10/26 00:56:48;;;;;;;16.88;8.57;;;10.40;99.90;;;;;;5085277;28;20047;-91
2022/10/26 00:59:16;;;;;;;24.95;9.32;;;10.40;99.90;;;;;;5085771;28;20557;-91
2022/10/26 01:01:45;;;;;;;12.15;7.97;;;10.40;99.90;;;;;;5084780;28;20048;-91
2022/10/26 01:04:12;;;;;;;12.75;7.53;;;10.80;99.90;;;;;;5079505;28;20561;-92
2022/10/26 01:06:40;;;;;;;15.02;8.38;;;11.60;99.90;;;;;;5069994;28;20043;-91
2022/10/26 01:09:06;;;;;;;13.75;8.63;;;10.30;99.90;;;;;;5069308;28;20516;-90
2022/10/26 01:11:31;;;;;;;13.80;7.88;;;11.50;99.90;;;;;;5054207;28;20048;-90
2022/10/26 01:14:00;;;;;;;13.27;8.10;;;10.40;99.90;;;;;;5071383;28;20403;-90
2022/10/26 01:16:50;;;;;;;17.00;8.55;;;11.00;99.90;;;;;;5069343;28;20040;-89
2022/10/26 01:19:50;;;;;;;11.60;7.57;;;10.40;99.90;;;;;;5068918;28;20047;-91
2022/10/26 01:22:21;;;;;;;22.55;8.98;;;10.40;99.90;;;;;;5068937;28;20048;-89
2022/10/26 01:25:14;;;;;;;18.55;8.88;;;10.40;99.90;;;;;;5050988;28;20083;-89
2022/10/26 01:27:43;;;;;;;13.85;8.90;;;10.40;99.90;;;;;;5068979;28;20119;-90
2022/10/26 01:30:17;;;;;;;19.70;9.15;;;10.40;99.90;;;;;;5056139;28;20060;-93
2022/10/26 01:32:56;;;;;;;15.00;8.68;;;10.30;99.90;;;;;;5070754;28;20070;-91
2022/10/26 01:36:09;;;;;;;24.38;9.70;;;10.30;99.90;;;;;;5073240;28;20043;-91
2022/10/26 01:38:46;;;;;;;15.53;8.73;;;10.30;99.90;;;;;;4980267;28;20153;-92
2022/10/26 01:41:30;;;;;;;21.58;9.18;;;10.30;99.90;;;;;;5075398;28;20044;-92
2022/10/26 01:44:00;;;;;;;21.88;9.85;;;10.20;99.90;;;;;;5079972;28;20043;-91
2022/10/26 01:46:30;;;;;;;13.38;9.35;;;10.20;99.90;;;;;;5079235;28;20111;-92
2022/10/26 01:49:01;;;;;;;17.45;9.70;;;10.40;99.90;;;;;;5079525;28;20066;-92
2022/10/26 01:51:28;;;;;;;16.98;9.73;;;10.40;99.90;;;;;;5078011;28;20051;-89
2022/10/26 01:53:56;;;;;;;14.02;8.48;;;10.10;99.90;;;;;;5078920;28;20143;-90
2022/10/26 01:56:29;;;;;;;14.80;9.30;;;10.10;99.90;;;;;;5080241;28;20106;-90
2022/10/26 01:59:07;;;;;;;12.27;9.38;;;10.00;99.90;;;;;;5062181;28;20055;-89
2022/10/26 02:01:47;;;;;;;23.52;10.00;;;10.00;99.90;;;;;;5078714;28;20125;-90
2022/10/26 02:04:50;;;;;;;15.15;9.50;;;10.00;99.90;;;;;;5067995;28;20466;-90
2022/10/26 02:07:31;;;;;;;17.02;9.98;;;10.00;99.90;;;;;;5067126;28;20459;-90
2022/10/26 02:10:18;;;;;;;16.23;10.32;;;9.90;99.90;;;;;;5084718;28;20082;-90
2022/10/26 02:13:09;;;;;;;20.15;10.43;;;9.90;99.90;;;;;;5066751;28;20048;-90
2022/10/26 02:15:55;;;;;;;14.65;9.52;;;9.80;99.90;;;;;;5067041;28;20059;-90
2022/10/26 02:18:41;;;;;;;15.52;10.55;;;9.80;99.90;;;;;;5068165;28;20051;-89
2022/10/26 02:21:13;;;;;;;22.25;10.77;;;9.80;99.90;;;;;;5066694;28;20056;-90
2022/10/26 02:23:44;;;;;;;16.73;10.73;;;10.80;99.90;;;;;;5067501;28;20044;-88
2022/10/26 02:26:13;;;;;;;15.40;10.38;;;9.70;99.90;;;;;;5067123;28;20066;-92
2022/10/26 02:28:45;;;;;;;19.63;11.10;;;9.60;99.90;;;;;;5066713;28;20086;-90
2022/10/26 02:31:13;;;;;;;17.27;9.85;;;9.60;99.90;;;;;;5051658;28;20079;-91
2022/10/26 02:33:43;;;;;;;18.45;10.68;;;10.20;99.90;;;;;;5066900;28;20048;-91
2022/10/26 02:36:12;;;;;;;15.65;10.25;;;9.50;99.90;;;;;;5067541;28;20050;-91
2022/10/26 02:38:39;;;;;;;19.65;10.68;;;10.40;99.90;;;;;;5084379;28;20442;-91
2022/10/26 02:41:07;;;;;;;17.23;10.90;;;9.50;99.90;;;;;;5050331;28;20040;-91
2022/10/26 02:43:40;;;;;;;25.65;11.40;;;9.50;99.90;;;;;;5051187;28;20051;-90
2022/10/26 02:46:10;;;;;;;19.98;11.13;;;9.40;99.90;;;;;;5066523;28;20043;-91
2022/10/26 02:48:36;;;;;;;19.70;11.07;;;9.40;99.90;;;;;;5068498;28;20028;-90
2022/10/26 02:51:12;;;;;;;20.20;11.52;;;9.50;99.90;;;;;;5050655;28;20496;-90
2022/10/26 02:53:49;;;;;;;18.23;11.43;;;9.40;99.90;;;;;;5050467;28;20067;-90
2022/10/26 02:56:22;;;;;;;18.85;10.85;;;10.10;99.90;;;;;;5067402;28;20032;-89
2022/10/26 02:58:54;;;;;;;21.98;12.13;;;9.30;99.90;;;;;;5066695;28;20044;-90
2022/10/26 03:01:20;;;;;;;19.73;12.63;;;10.10;99.90;;;;;;5052560;28;20040;-90
2022/10/26 03:03:47;;;;;;;21.73;12.45;;;10.10;99.90;;;;;;5070274;28;20044;-90
2022/10/26 03:06:20;;;;;;;19.85;12.98;;;9.30;99.90;;;;;;5071309;28;20048;-91
2022/10/26 03:08:46;;;;;;;17.80;11.50;;;9.40;99.90;;;;;;5054646;28;20048;-90
2022/10/26 03:11:12;;;;;;;18.52;11.75;;;9.20;99.90;;;;;;5078038;28;20454;-90
2022/10/26 03:13:37;;;;;;;19.40;10.88;;;9.20;99.90;;;;;;5078250;28;20082;-92
2022/10/26 03:16:03;;;;;;;21.33;10.20;;;9.10;99.90;;;;;;5075672;28;20047;-90
2022/10/26 03:18:29;;;;;;;21.15;11.05;;;9.10;99.90;;;;;;5072291;28;20050;-90
2022/10/26 03:20:54;;;;;;;22.20;12.25;;;9.00;99.90;;;;;;5070902;28;20067;-90
2022/10/26 03:23:20;;;;;;;23.73;12.15;;;9.90;99.90;;;;;;5072135;28;20040;-92
2022/10/26 03:25:46;;;;;;;22.42;12.05;;;9.00;99.90;;;;;;5073192;28;20044;-91
2022/10/26 03:28:11;;;;;;;17.50;12.15;;;8.90;99.90;;;;;;5072824;28;20042;-91
2022/10/26 03:30:37;;;;;;;18.92;11.85;;;8.90;99.90;;;;;;5071578;28;20051;-91
2022/10/26 03:33:02;;;;;;;19.85;12.25;;;9.70;99.90;;;;;;5071137;28;20047;-91
2022/10/26 03:35:28;;;;;;;20.08;11.18;;;8.90;99.90;;;;;;5073343;28;20039;-92
2022/10/26 03:37:54;;;;;;;24.05;12.95;;;8.80;99.90;;;;;;5078844;28;20560;-91
2022/10/26 03:40:19;;;;;;;23.55;11.95;;;9.30;99.90;;;;;;5075893;28;20072;-91
2022/10/26 03:42:45;;;;;;;18.35;12.43;;;8.80;99.90;;;;;;5069903;28;20131;-91
2022/10/26 03:45:11;;;;;;;22.13;13.05;;;9.30;99.90;;;;;;5070998;28;20051;-90
2022/10/26 03:47:44;;;;;;;22.90;12.50;;;8.80;99.90;;;;;;5054478;28;20036;-90
2022/10/26 03:50:12;;;;;;;21.40;13.60;;;8.80;99.90;;;;;;5070315;28;20040;-89
2022/10/26 03:52:37;;;;;;;24.50;13.63;;;9.70;99.90;;;;;;5072159;28;20126;-91
2022/10/26 03:55:04;;;;;;;20.27;12.88;;;9.60;99.90;;;;;;5078848;28;20134;-90
2022/10/26 03:57:30;;;;;;;19.25;13.25;;;8.80;99.90;;;;;;5078452;28;20068;-90
2022/10/26 03:59:55;;;;;;;22.13;12.18;;;9.30;99.90;;;;;;5077941;28;20044;-92
2022/10/26 04:02:21;;;;;;;21.52;13.88;;;8.80;99.90;;;;;;5076941;28;20044;-91
2022/10/26 04:04:47;;;;;;;34.17;15.23;;;8.90;99.90;;;;;;5093201;28;20032;-91
2022/10/26 04:07:12;;;;;;;23.83;14.52;;;8.90;99.90;;;;;;5089189;28;20807;-94
2022/10/26 04:09:38;;;;;;;25.10;13.57;;;8.90;99.90;;;;;;5089990;28;20036;-93
2022/10/26 04:12:04;;;;;;;31.77;16.00;;;9.50;99.90;;;;;;5090760;28;20055;-93
2022/10/26 04:14:30;;;;;;;24.77;15.20;;;9.00;99.90;;;;;;5046800;28;20043;-90
2022/10/26 04:16:55;;;;;;;26.48;14.73;;;10.10;99.90;;;;;;5076086;28;20032;-91
2022/10/26 04:19:26;;;;;;;26.35;15.80;;;9.00;99.90;;;;;;5063163;28;20058;-90
2022/10/26 04:21:52;;;;;;;24.67;14.80;;;9.50;99.90;;;;;;5057843;28;20410;-90
2022/10/26 04:24:19;;;;;;;26.13;15.35;;;9.50;99.90;;;;;;5056257;28;20046;-91
2022/10/26 04:26:45;;;;;;;27.52;14.40;;;9.10;99.90;;;;;;5073137;28;20070;-91
2022/10/26 04:29:12;;;;;;;22.00;15.05;;;9.10;99.90;;;;;;5054137;28;20122;-91
2022/10/26 04:31:38;;;;;;;23.20;14.65;;;9.10;99.90;;;;;;5039393;28;20054;-90
2022/10/26 04:34:04;;;;;;;25.80;15.90;;;9.10;99.90;;;;;;5054479;28;20083;-89
2022/10/26 04:36:30;;;;;;;25.45;15.15;;;9.10;99.90;;;;;;5071642;28;20043;-91
2022/10/26 04:38:56;;;;;;;25.02;14.85;;;9.20;99.90;;;;;;5071582;28;20086;-92
2022/10/26 04:41:21;;;;;;;28.77;16.13;;;9.10;99.90;;;;;;5072842;28;20563;-92
2022/10/26 04:43:47;;;;;;;24.13;15.82;;;9.10;99.90;;;;;;5071846;28;20067;-89
2022/10/26 04:46:13;;;;;;;26.73;15.43;;;10.30;99.90;;;;;;5054068;28;20125;-90
2022/10/26 04:48:39;;;;;;;27.23;16.38;;;9.10;99.90;;;;;;5056948;28;20055;-92
2022/10/26 04:51:04;;;;;;;27.90;15.77;;;8.50;99.90;;;;;;5089862;28;20039;-93
2022/10/26 04:53:32;;;;;;;23.13;15.98;;;9.20;99.90;;;;;;5073950;28;20046;-93
2022/10/26 04:56:01;;;;;;;31.55;15.70;;;9.20;99.90;;;;;;5054880;28;20082;-91
2022/10/26 04:58:27;;;;;;;29.27;14.40;;;9.40;99.90;;;;;;5050180;28;20079;-92
2022/10/26 05:00:53;;;;;;;25.83;15.85;;;9.30;99.90;;;;;;5034179;28;20130;-94
2022/10/26 05:03:19;;;;;;;32.33;17.23;;;9.30;99.90;;;;;;5050713;28;20032;-93
2022/10/26 05:05:46;;;;;;;26.50;15.55;;;10.20;99.90;;;;;;5052778;28;20101;-93
2022/10/26 05:08:13;;;;;;;27.05;14.77;;;9.50;99.90;;;;;;5058328;28;20126;-94
2022/10/26 05:10:39;;;;;;;24.92;15.48;;;9.50;99.90;;;;;;5068687;28;20028;-91
2022/10/26 05:13:05;;;;;;;24.75;16.40;;;9.80;99.90;;;;;;5040945;28;20040;-92
2022/10/26 05:15:30;;;;;;;24.27;15.57;;;9.70;99.90;;;;;;5058018;28;20403;-92
2022/10/26 05:17:58;;;;;;;28.38;16.50;;;9.60;99.90;;;;;;5057690;28;20053;-96
2022/10/26 05:20:29;;;;;;;29.67;16.65;;;9.60;99.90;;;;;;5036284;28;20044;-95
2022/10/26 05:23:00;;;;;;;30.50;15.90;;;9.70;99.90;;;;;;5041453;28;20040;-94
2022/10/26 05:25:28;;;;;;;24.48;16.85;;;9.70;99.90;;;;;;5056507;28;20063;-95
2022/10/26 05:28:03;;;;;;;24.27;16.92;;;9.70;99.90;;;;;;5056746;28;20048;-96
2022/10/26 05:30:29;;;;;;;24.63;15.27;;;9.70;99.90;;;;;;5055320;28;20057;-95
2022/10/26 05:32:57;;;;;;;28.92;15.40;;;9.80;99.90;;;;;;5058185;28;20040;-95
2022/10/26 05:35:23;;;;;;;24.90;16.52;;;10.10;99.90;;;;;;5058720;28;20080;-96
2022/10/26 05:37:48;;;;;;;25.77;15.82;;;9.80;99.90;;;;;;5049116;28;20075;-96
2022/10/26 05:40:15;;;;;;;33.90;16.25;;;10.10;99.90;;;;;;5034837;28;20067;-95
2022/10/26 05:42:41;;;;;;;25.45;15.55;;;9.90;99.90;;;;;;5031580;28;20527;-94
2022/10/26 05:45:07;;;;;;;29.80;16.55;;;10.60;99.90;;;;;;5067738;28;20044;-92
2022/10/26 05:47:41;;;;;;;29.35;15.68;;;9.90;99.90;;;;;;5049093;28;20040;-91
2022/10/26 05:50:08;;;;;;;24.58;15.63;;;9.90;99.90;;;;;;5047885;28;20048;-93
2022/10/26 05:52:39;;;;;;;28.50;16.25;;;9.90;99.90;;;;;;5049734;28;20033;-94
2022/10/26 05:55:06;;;;;;;23.88;14.85;;;9.90;99.90;;;;;;5029339;28;20052;-93
2022/10/26 05:57:34;;;;;;;24.88;15.05;;;10.00;99.90;;;;;;5053773;28;20075;-95
2022/10/26 06:00:00;;;;;;;26.17;14.48;;;9.90;99.90;;;;;;5051808;28;20113;-93
2022/10/26 06:02:39;;;;;;;23.55;14.80;;;10.00;99.90;;;;;;5069558;28;20040;-94
2022/10/26 06:05:08;;;;;;;23.80;14.05;;;10.00;99.90;;;;;;5086512;28;20475;-92
2022/10/26 06:07:34;;;;;;;25.65;14.77;;;10.00;99.90;;;;;;5051279;28;20083;-92
2022/10/26 06:10:00;;;;;;;24.20;14.40;;;10.00;99.90;;;;;;5069498;28;20106;-91
2022/10/26 06:12:25;;;;;;;25.52;14.75;;;10.00;99.90;;;;;;5050830;28;20398;-93
2022/10/26 06:14:51;;;;;;;23.92;15.35;;;10.00;99.90;;;;;;5071025;28;20040;-92
2022/10/26 06:17:32;;;;;;;22.60;13.65;;;10.10;99.90;;;;;;5069066;28;20439;-93
2022/10/26 06:20:31;;;;;;;24.95;13.68;;;10.10;99.90;;;;;;5069348;28;20052;-91
2022/10/26 06:23:15;;;;;;;24.92;14.25;;;10.10;99.90;;;;;;5069477;28;20044;-93
2022/10/26 06:26:05;;;;;;;23.55;14.57;;;10.10;99.90;;;;;;5050832;28;20050;-92
2022/10/26 06:28:57;;;;;;;22.75;13.70;;;10.10;99.90;;;;;;5087029;28;20044;-92
2022/10/26 06:31:22;;;;;;;19.17;11.68;;;10.10;99.90;;;;;;5069534;28;20056;-92
2022/10/26 06:33:48;;;;;;;18.95;13.10;;;10.20;99.90;;;;;;5066816;28;20040;-91
2022/10/26 06:36:23;;;;;;;18.55;12.63;;;10.20;99.90;;;;;;5054256;28;20044;-92
2022/10/26 06:39:03;;;;;;;19.80;12.90;;;10.20;99.90;;;;;;5072708;28;20039;-92
2022/10/26 06:41:34;;;;;;;20.45;13.13;;;10.20;99.90;;;;;;5072621;28;20297;-94
2022/10/26 06:44:01;;;;;;;16.88;12.02;;;10.20;99.90;;;;;;5073933;28;20566;-94
2022/10/26 06:46:30;;;;;;;19.60;11.45;;;10.30;99.90;;;;;;5075683;28;20101;-91
2022/10/26 06:49:17;;;;;;;22.77;11.98;;;10.30;99.90;;;;;;5079749;28;20044;-90
2022/10/26 06:52:24;;;;;;;17.63;11.93;;;10.30;99.90;;;;;;5078024;28;20048;-92
2022/10/26 06:54:53;;;;;;;17.48;10.73;;;10.40;99.90;;;;;;5001734;28;20049;-91
2022/10/26 06:57:21;;;;;;;16.75;10.98;;;10.40;99.90;;;;;;5073929;28;20048;-92
2022/10/26 06:59:56;;;;;;;14.55;10.48;;;10.50;99.90;;;;;;5060347;28;20036;-94
2022/10/26 07:02:22;;;;;;;15.32;10.45;;;10.50;99.90;;;;;;5083150;28;20052;-92
2022/10/26 07:04:48;;;;;;;16.35;10.40;;;10.60;99.90;;;;;;5081558;28;20044;-92
2022/10/26 07:07:17;;;;;;;15.90;9.35;;;10.60;99.90;;;;;;5063402;28;20044;-94
2022/10/26 07:09:43;;;;;;;19.88;10.30;;;10.60;99.90;;;;;;5078429;28;20042;-93
2022/10/26 07:12:08;;;;;;;14.43;10.50;;;10.70;99.90;;;;;;5076073;28;20051;-93
2022/10/26 07:14:34;;;;;;;14.43;10.60;;;10.70;99.90;;;;;;5074913;28;20036;-93
2022/10/26 07:17:00;;;;;;;18.10;10.05;;;11.80;99.90;;;;;;5070822;28;20040;-92
2022/10/26 07:19:26;;;;;;;15.75;10.23;;;11.20;99.90;;;;;;5073176;28;20040;-93
2022/10/26 07:21:55;;;;;;;17.08;9.70;;;10.80;99.90;;;;;;5072401;28;20043;-93
2022/10/26 07:24:22;;;;;;;19.58;9.60;;;10.90;99.90;;;;;;5074206;28;20063;-93
2022/10/26 07:26:48;;;;;;;18.65;9.68;;;10.90;99.90;;;;;;5074515;28;20044;-91
2022/10/26 07:29:15;;;;;;;16.13;9.05;;;10.90;99.90;;;;;;5056191;28;20085;-93
2022/10/26 07:31:41;;;;;;;19.20;9.70;;;11.00;99.90;;;;;;5058624;28;20074;-92
2022/10/26 07:34:13;;;;;;;13.95;9.43;;;10.10;99.90;;;;;;5070916;28;20085;-92
2022/10/26 07:36:39;;;;;;;17.80;9.32;;;11.00;99.90;;;;;;5056975;28;20040;-92
2022/10/26 07:39:05;;;;;;;15.57;10.30;;;11.00;99.90;;;;;;5056179;28;20126;-91
2022/10/26 07:41:31;;;;;;;18.23;9.50;;;11.10;99.90;;;;;;5068080;28;20051;-93
2022/10/26 07:43:57;;;;;;;15.90;9.68;;;11.30;99.90;;;;;;5089578;28;20082;-92
2022/10/26 07:46:23;;;;;;;18.55;9.48;;;11.10;99.90;;;;;;5074774;28;20032;-93
2022/10/26 07:48:49;;;;;;;15.85;9.63;;;11.20;99.90;;;;;;5111005;28;20078;-92
2022/10/26 07:51:14;;;;;;;16.35;9.05;;;11.20;99.90;;;;;;5093860;28;20072;-93
2022/10/26 07:53:41;;;;;;;11.90;8.25;;;11.20;99.90;;;;;;5073815;28;20080;-94
2022/10/26 07:56:07;;;;;;;17.67;8.55;;;11.30;99.90;;;;;;5094049;28;20029;-93
2022/10/26 07:58:33;;;;;;;11.82;7.70;;;11.30;99.90;;;;;;5096152;28;20039;-93
2022/10/26 08:01:06;;;;;;;11.27;8.65;;;11.40;99.90;;;;;;5084583;28;20047;-93
2022/10/26 08:03:32;;;;;;;11.38;7.53;;;11.40;99.90;;;;;;5079599;28;20040;-91
2022/10/26 08:05:58;;;;;;;15.93;8.88;;;11.50;99.90;;;;;;5079479;28;20388;-93
2022/10/26 08:08:23;;;;;;;13.82;8.10;;;11.60;99.90;;;;;;5077685;28;20041;-94
2022/10/26 08:10:51;;;;;;;14.02;7.65;;;11.60;99.90;;;;;;5079690;28;20062;-92
2022/10/26 08:13:16;;;;;;;17.48;7.22;;;12.20;99.90;;;;;;5078645;28;20047;-94
2022/10/26 08:15:43;;;;;;;12.93;7.45;;;11.70;99.90;;;;;;5084847;28;20051;-93
2022/10/26 08:18:09;;;;;;;12.25;7.70;;;11.80;99.90;;;;;;5080852;28;20032;-93
2022/10/26 08:20:35;;;;;;;11.85;7.47;;;12.70;99.90;;;;;;5087341;28;20036;-93
2022/10/26 08:23:04;;;;;;;15.63;8.05;;;11.90;99.90;;;;;;5078578;28;20075;-92
2022/10/26 08:25:31;;;;;;;13.55;8.25;;;11.90;99.90;;;;;;5055374;28;20051;-93
2022/10/26 08:28:01;;;;;;;14.52;7.80;;;12.30;99.90;;;;;;5057687;28;20089;-92
2022/10/26 08:30:28;;;;;;;13.05;6.93;;;12.10;99.90;;;;;;5069989;28;20124;-92
2022/10/26 08:32:59;;;;;;;11.80;7.18;;;12.10;99.90;;;;;;5054418;28;20564;-93
2022/10/26 08:35:25;;;;;;;9.43;6.43;;;12.20;99.90;;;;;;5070470;28;20084;-93
2022/10/26 08:37:52;;;;;;;11.65;6.40;;;12.30;99.90;;;;;;5070518;28;20048;-92
2022/10/26 08:40:21;;;;;;;13.40;6.20;;;12.40;99.90;;;;;;5054784;28;20047;-93
2022/10/26 08:42:51;;;;;;;12.40;6.57;;;12.50;99.90;;;;;;5069114;28;20043;-93
2022/10/26 08:45:27;;;;;;;10.27;6.05;;;12.60;99.90;;;;;;5054513;28;20109;-93
2022/10/26 08:47:57;;;;;;;12.77;5.60;;;12.70;99.90;;;;;;5069060;28;20055;-94
2022/10/26 08:50:33;;;;;;;9.50;5.85;;;12.80;99.90;;;;;;5070656;28;20051;-91
2022/10/26 08:53:14;;;;;;;9.90;5.40;;;12.90;99.90;;;;;;5087846;28;20083;-93
2022/10/26 08:56:13;;;;;;;7.90;5.50;;;13.10;99.90;;;;;;5068666;28;20056;-94
2022/10/26 08:58:45;;;;;;;8.27;5.22;;;13.20;99.90;;;;;;5071611;28;20106;-93
2022/10/26 09:01:11;;;;;;;7.22;4.65;;;13.30;99.90;;;;;;5070458;28;20517;-93
2022/10/26 09:03:37;;;;;;;10.27;4.88;;;13.50;99.90;;;;;;5069821;28;20040;-93
2022/10/26 09:06:32;;;;;;;9.07;5.07;;;13.60;99.90;;;;;;5038130;28;20048;-93
2022/10/26 09:09:18;;;;;;;8.10;3.95;;;13.80;99.90;;;;;;5070553;28;20055;-92
2022/10/26 09:12:03;;;;;;;6.70;4.03;;;13.90;99.90;;;;;;5055488;28;20044;-95
2022/10/26 09:14:53;;;;;;;10.52;4.78;;;14.10;99.90;;;;;;5071443;28;20040;-94
2022/10/26 09:18:01;;;;;;;11.10;4.22;;;14.20;99.90;;;;;;5070336;28;20051;-94
2022/10/26 09:20:39;;;;;;;6.30;3.70;;;14.40;99.90;;;;;;5091180;28;20071;-91
2022/10/26 09:23:24;;;;;;;6.10;4.07;;;14.50;99.90;;;;;;5082763;28;20048;-93
2022/10/26 09:26:00;;;;;;;10.13;3.28;;;14.60;99.90;;;;;;5090741;28;20040;-93
2022/10/26 09:28:30;;;;;;;10.07;3.65;;;14.70;99.90;;;;;;5086425;28;20459;-94
2022/10/26 09:30:59;;;;;;;7.88;3.42;;;15.50;99.90;;;;;;5068559;28;20036;-94
2022/10/26 09:33:26;;;;;;;7.13;3.38;;;15.00;99.90;;;;;;5072840;28;20093;-94
2022/10/26 09:36:00;;;;;;;10.98;3.42;;;15.10;99.90;;;;;;5056412;28;20044;-93
2022/10/26 09:38:30;;;;;;;11.02;2.92;;;15.30;99.90;;;;;;5071333;28;20093;-95
2022/10/26 09:41:05;;;;;;;10.05;3.63;;;15.40;99.90;;;;;;5057432;28;20048;-95
2022/10/26 09:43:54;;;;;;;5.45;2.30;;;15.10;99.90;;;;;;5069257;28;20487;-93
2022/10/26 09:46:39;;;;;;;5.88;2.22;;;15.80;99.90;;;;;;5070693;28;20040;-94
2022/10/26 09:49:08;;;;;;;8.00;2.30;;;15.90;99.90;;;;;;5070036;28;20472;-92
2022/10/26 09:51:37;;;;;;;6.38;2.80;;;16.00;99.90;;;;;;5068236;28;20051;-93
2022/10/26 09:54:12;;;;;;;6.85;2.00;;;16.10;99.90;;;;;;5088412;28;20826;-93
2022/10/26 09:56:39;;;;;;;5.80;2.05;;;16.20;99.90;;;;;;5085155;28;20059;-93
2022/10/26 09:59:06;;;;;;;4.40;1.63;;;16.40;99.90;;;;;;5070851;28;20542;-93
2022/10/26 10:01:33;;;;;;;5.90;2.00;;;16.50;99.90;;;;;;5069261;28;20040;-93
2022/10/26 10:04:24;;;;;;;7.68;2.00;;;16.50;99.90;;;;;;5070942;28;20122;-91
2022/10/26 10:07:02;;;;;;;6.95;2.38;;;16.70;99.90;;;;;;5071065;28;20808;-89
2022/10/26 10:09:28;;;;;;;12.32;4.05;;;16.80;99.90;;;;;;5089898;28;20044;-93
2022/10/26 10:11:59;;;;;;;6.47;2.22;;;16.90;99.90;;;;;;5077574;28;20040;-93
2022/10/26 10:14:39;;;;;;;6.18;2.10;;;17.00;99.90;;;;;;5073675;28;20514;-93
2022/10/26 10:17:14;;;;;;;4.97;1.98;;;17.10;99.90;;;;;;5070545;28;20087;-93
2022/10/26 10:19:39;;;;;;;3.70;1.80;;;17.20;99.90;;;;;;5071441;28;20048;-93
2022/10/26 10:22:23;;;;;;;4.25;1.95;;;17.20;99.90;;;;;;5068107;28;20249;-93
2022/10/26 10:24:57;;;;;;;11.20;1.98;;;17.20;99.90;;;;;;5071090;28;20048;-93
2022/10/26 10:27:24;;;;;;;6.25;2.00;;;17.30;99.90;;;;;;5068816;28;20096;-93
2022/10/26 10:29:54;;;;;;;11.45;2.03;;;17.40;99.90;;;;;;5060396;28;20072;-93
2022/10/26 10:32:30;;;;;;;4.60;1.73;;;17.50;99.90;;;;;;5069311;28;20137;-93
2022/10/26 10:35:00;;;;;;;4.38;1.70;;;17.50;99.90;;;;;;5050849;28;20491;-93
2022/10/26 10:37:29;;;;;;;4.88;1.90;;;17.50;99.90;;;;;;5087839;28;20450;-92
2022/10/26 10:40:07;;;;;;;7.35;1.70;;;17.40;99.90;;;;;;5067043;28;20039;-92
2022/10/26 10:42:39;;;;;;;4.60;1.73;;;17.30;99.90;;;;;;5068835;28;20055;-93
2022/10/26 10:45:06;;;;;;;4.30;1.83;;;17.20;99.90;;;;;;5068996;28;20058;-92
2022/10/26 10:47:33;;;;;;;8.05;1.90;;;17.10;99.90;;;;;;5050085;28;20044;-92
2022/10/26 10:50:19;;;;;;;6.38;1.88;;;17.10;99.90;;;;;;5069464;28;20075;-93
2022/10/26 10:52:51;;;;;;;4.32;1.70;;;17.10;99.90;;;;;;5065749;28;20051;-89
2022/10/26 10:55:21;;;;;;;7.22;2.35;;;17.10;99.90;;;;;;5051909;28;20060;-89
2022/10/26 10:58:13;;;;;;;3.75;1.55;;;17.20;99.90;;;;;;5050544;28;20479;-88
2022/10/26 11:00:42;;;;;;;4.68;1.85;;;17.20;99.90;;;;;;5066603;28;20059;-89
2022/10/26 11:03:07;;;;;;;8.60;1.55;;;17.20;99.90;;;;;;5072201;28;20126;-88
2022/10/26 11:05:46;;;;;;;5.93;1.67;;;17.20;99.90;;;;;;5066676;28;20556;-88
2022/10/26 11:08:24;;;;;;;8.93;1.90;;;17.30;99.90;;;;;;5074516;28;20506;-92
2022/10/26 11:11:23;;;;;;;5.00;1.80;;;17.30;99.90;;;;;;5094929;28;20411;-91
2022/10/26 11:14:10;;;;;;;8.05;1.88;;;17.40;99.90;;;;;;5068574;28;20047;-93
2022/10/26 11:16:41;;;;;;;6.68;1.88;;;17.40;99.90;;;;;;5078362;28;20044;-93
2022/10/26 11:19:23;;;;;;;4.88;1.70;;;17.60;99.90;;;;;;5077404;28;20124;-89
2022/10/26 11:21:53;;;;;;;7.70;1.73;;;17.60;99.90;;;;;;5071978;28;20047;-89
2022/10/26 11:24:36;;;;;;;7.07;1.58;;;17.80;99.90;;;;;;5075408;28;20047;-89
2022/10/26 11:27:19;;;;;;;7.45;2.00;;;17.80;99.90;;;;;;5070189;28;20218;-91
2022/10/26 11:29:54;;;;;;;8.85;1.95;;;18.00;99.90;;;;;;5092170;28;20043;-94
2022/10/26 11:32:23;;;;;;;12.80;1.90;;;18.10;99.90;;;;;;5071940;28;20040;-92
2022/10/26 11:35:23;;;;;;;5.60;1.67;;;18.20;99.90;;;;;;5071454;28;20574;-91
2022/10/26 11:38:11;;;;;;;5.03;1.88;;;18.30;99.90;;;;;;5056638;28;20036;-93
2022/10/26 11:41:04;;;;;;;5.10;1.80;;;18.30;99.90;;;;;;5073051;28;20048;-93
2022/10/26 11:43:43;;;;;;;3.03;1.52;;;18.30;99.90;;;;;;5072270;28;20434;-93
2022/10/26 11:46:17;;;;;;;5.68;1.92;;;18.30;99.90;;;;;;5089703;28;20080;-95
2022/10/26 11:48:50;;;;;;;4.55;2.38;;;18.40;99.90;;;;;;5070445;28;20052;-92
2022/10/26 11:51:32;;;;;;;10.15;2.45;;;18.50;99.90;;;;;;5072138;28;20043;-91
2022/10/26 11:54:06;;;;;;;6.20;2.08;;;18.60;99.90;;;;;;5071921;28;20044;-90
2022/10/26 11:56:44;;;;;;;6.50;2.05;;;18.60;99.90;;;;;;5070906;28;20070;-91
2022/10/26 11:59:19;;;;;;;6.82;1.90;;;18.70;99.90;;;;;;5063662;28;20100;-93
2022/10/26 12:01:48;;;;;;;12.95;2.58;;;18.70;99.90;;;;;;5073908;28;20028;-92
2022/10/26 12:04:15;;;;;;;6.65;2.10;;;18.80;99.90;;;;;;5095563;28;20036;-94
2022/10/26 12:06:41;;;;;;;7.97;2.33;;;18.80;99.90;;;;;;5095348;28;20032;-94
2022/10/26 12:09:18;;;;;;;12.55;2.13;;;18.90;99.90;;;;;;5094695;28;20100;-93
2022/10/26 12:12:23;;;;;;;8.75;2.25;;;18.90;99.90;;;;;;5092804;28;20537;-90
2022/10/26 12:15:14;;;;;;;7.15;1.83;;;19.00;99.90;;;;;;5092075;28;20036;-91
2022/10/26 12:17:48;;;;;;;7.35;2.40;;;19.00;99.90;;;;;;5092348;28;20078;-92
2022/10/26 12:20:45;;;;;;;5.60;2.17;;;19.00;99.90;;;;;;5093268;28;20063;-94
2022/10/26 12:23:15;;;;;;;10.35;1.92;;;19.70;99.90;;;;;;5106233;28;20036;-93
2022/10/26 12:25:41;;;;;;;9.07;1.98;;;18.80;99.90;;;;;;5088981;28;20040;-91
2022/10/26 12:28:36;;;;;;;5.03;1.90;;;18.80;99.90;;;;;;5087561;28;20055;-86
2022/10/26 12:31:36;;;;;;;5.82;1.60;;;18.80;99.90;;;;;;5069457;28;20132;-88
2022/10/26 12:34:11;;;;;;;8.82;2.08;;;18.80;99.90;;;;;;5069481;28;20123;-87
2022/10/26 12:36:49;;;;;;;7.30;1.65;;;18.90;99.90;;;;;;5069762;28;20047;-90
2022/10/26 12:39:41;;;;;;;9.65;2.00;;;19.00;99.90;;;;;;5069791;28;20048;-93
2022/10/26 12:42:07;;;;;;;5.70;1.75;;;19.10;99.90;;;;;;5073785;28;20044;-92
2022/10/26 12:44:40;;;;;;;5.85;1.50;;;19.10;99.90;;;;;;5071495;28;20136;-94
2022/10/26 12:47:07;;;;;;;8.55;2.00;;;19.10;99.90;;;;;;5074455;28;20080;-92
2022/10/26 12:50:07;;;;;;;6.93;1.80;;;19.00;99.90;;;;;;5076194;28;20269;-92
2022/10/26 12:52:47;;;;;;;7.97;2.92;;;19.00;99.90;;;;;;5064340;28;20050;-91
2022/10/26 12:55:25;;;;;;;8.98;2.08;;;18.90;99.90;;;;;;5065039;28;20135;-93
2022/10/26 12:58:07;;;;;;;11.20;2.38;;;18.80;99.90;;;;;;5057580;28;20052;-93
2022/10/26 13:00:40;;;;;;;9.80;2.50;;;18.70;99.90;;;;;;5077733;28;20049;-94
2022/10/26 13:03:33;;;;;;;10.13;2.58;;;18.70;99.90;;;;;;5039812;28;20107;-93
2022/10/26 13:06:14;;;;;;;;;;;18.70;99.90;;;;;;5067075;28;20044;-92